createdAt,value
2019-04-06T00:00:05.590Z,5.25
2019-04-06T00:02:37.403Z,6.28
2019-04-06T00:05:08.306Z,6.97
2019-04-06T00:07:38.091Z,5.90
2019-04-06T00:10:07.797Z,5.08
2019-04-06T00:12:37.711Z,6.85
2019-04-06T00:15:07.803Z,7.12
2019-04-06T00:17:37.567Z,6.87
2019-04-06T00:20:07.415Z,7.08
2019-04-06T00:22:37.301Z,6.87
2019-04-06T00:25:06.992Z,7.80
2019-04-06T00:27:36.714Z,7.78
2019-04-06T00:30:07.238Z,8.78
2019-04-06T00:32:44.151Z,8.90
2019-04-06T00:35:14.493Z,7.90
2019-04-06T00:37:44.257Z,7.72
2019-04-06T00:40:13.802Z,7.42
2019-04-06T00:42:43.582Z,7.62
2019-04-06T00:45:13.424Z,7.35
2019-04-06T00:47:43.249Z,7.08
2019-04-06T00:50:13.383Z,7.10
2019-04-06T00:52:43.168Z,7.22
2019-04-06T00:55:13.296Z,7.62
2019-04-06T00:57:42.898Z,6.60
2019-04-06T01:00:13.063Z,6.55
2019-04-06T01:02:43.034Z,6.72
2019-04-06T01:05:12.798Z,6.87
2019-04-06T01:07:42.499Z,6.15
2019-04-06T01:10:12.379Z,6.08
2019-04-06T01:12:42.070Z,6.37
2019-04-06T01:15:12.171Z,5.85
2019-04-06T01:17:41.811Z,5.50
2019-04-06T01:20:18.800Z,6.80
2019-04-06T01:22:48.762Z,7.17
2019-04-06T01:25:18.937Z,7.87
2019-04-06T01:27:48.694Z,7.28
2019-04-06T01:30:18.461Z,7.03
2019-04-06T01:32:48.628Z,7.62
2019-04-06T01:35:18.687Z,7.50
2019-04-06T01:37:48.601Z,8.50
2019-04-06T01:40:18.103Z,7.85
2019-04-06T01:42:48.136Z,8.70
2019-04-06T01:45:18.148Z,8.95
2019-04-06T01:47:47.666Z,8.18
2019-04-06T01:50:17.698Z,9.33
2019-04-06T01:52:47.696Z,9.95
2019-04-06T01:55:17.256Z,8.80
2019-04-06T01:57:47.027Z,10.13
2019-04-06T02:00:16.680Z,9.28
2019-04-06T02:02:48.981Z,9.43
2019-04-06T02:05:18.672Z,9.58
2019-04-06T02:07:48.260Z,9.18
2019-04-06T02:10:17.859Z,8.63
2019-04-06T02:12:47.607Z,9.70
2019-04-06T02:15:17.491Z,10.75
2019-04-06T02:17:47.371Z,10.80
2019-04-06T02:20:16.946Z,12.55
2019-04-06T02:22:46.392Z,12.35
2019-04-06T02:25:16.487Z,12.18
2019-04-06T02:27:46.195Z,12.40
2019-04-06T02:30:29.295Z,13.58
2019-04-06T02:33:14.014Z,13.45
2019-04-06T02:36:16.805Z,14.30
2019-04-06T02:38:54.869Z,14.55
2019-04-06T02:42:02.265Z,15.50
2019-04-06T02:44:32.425Z,15.90
2019-04-06T02:47:02.326Z,16.42
2019-04-06T02:49:31.976Z,16.25
2019-04-06T02:52:01.678Z,17.52
2019-04-06T02:54:31.192Z,15.88
2019-04-06T02:57:01.228Z,17.95
2019-04-06T02:59:30.855Z,17.92
2019-04-06T03:02:00.508Z,18.10
2019-04-06T03:04:30.168Z,18.15
2019-04-06T03:06:59.694Z,18.42
2019-04-06T03:09:29.382Z,19.12
2019-04-06T03:11:59.389Z,22.15
2019-04-06T03:14:29.087Z,20.57
2019-04-06T03:16:58.576Z,19.45
2019-04-06T03:19:28.392Z,19.42
2019-04-06T03:21:57.806Z,18.27
2019-04-06T03:24:27.833Z,18.00
2019-04-06T03:27:01.999Z,17.20
2019-04-06T03:29:28.939Z,17.07
2019-04-06T03:31:59.119Z,18.60
2019-04-06T03:34:28.866Z,16.75
2019-04-06T03:36:58.872Z,18.07
2019-04-06T03:39:28.452Z,17.32
2019-04-06T03:41:58.236Z,17.52
2019-04-06T03:44:27.767Z,17.40
2019-04-06T03:46:57.286Z,17.55
2019-04-06T03:49:27.402Z,19.77
2019-04-06T03:51:57.285Z,19.42
2019-04-06T03:54:26.852Z,19.50
2019-04-06T03:56:56.675Z,21.70
2019-04-06T03:59:26.737Z,23.47
2019-04-06T04:01:56.726Z,23.85
2019-04-06T04:04:26.407Z,24.27
2019-04-06T04:06:56.631Z,25.23
2019-04-06T04:09:26.330Z,26.15
2019-04-06T04:11:55.790Z,29.02
2019-04-06T04:14:25.511Z,30.30
2019-04-06T04:16:55.011Z,31.60
2019-04-06T04:19:24.949Z,32.25
2019-04-06T04:21:54.856Z,34.40
2019-04-06T04:24:24.894Z,35.03
2019-04-06T04:26:55.309Z,38.65
2019-04-06T04:29:25.276Z,38.78
2019-04-06T04:31:54.761Z,39.88
2019-04-06T04:34:24.550Z,40.17
2019-04-06T04:36:53.976Z,40.25
2019-04-06T04:39:24.131Z,39.95
2019-04-06T04:41:54.275Z,40.43
2019-04-06T04:44:24.240Z,40.92
2019-04-06T04:46:53.904Z,42.00
2019-04-06T04:49:23.728Z,44.30
2019-04-06T04:51:53.339Z,45.35
2019-04-06T04:54:22.958Z,50.30
2019-04-06T04:56:52.722Z,52.08
2019-04-06T04:59:23.311Z,54.50
2019-04-06T05:01:53.176Z,55.15
2019-04-06T05:04:22.833Z,57.95
2019-04-06T05:06:52.339Z,59.93
2019-04-06T05:09:22.049Z,58.95
2019-04-06T05:11:51.702Z,59.08
2019-04-06T05:14:58.433Z,61.70
2019-04-06T05:17:28.186Z,64.62
2019-04-06T05:19:58.092Z,65.67
2019-04-06T05:22:27.931Z,67.85
2019-04-06T05:24:57.634Z,69.67
2019-04-06T05:27:27.359Z,71.33
2019-04-06T05:29:57.553Z,71.77
2019-04-06T05:32:27.223Z,71.60
2019-04-06T05:34:58.117Z,73.65
2019-04-06T05:37:28.492Z,70.28
2019-04-06T05:39:58.575Z,71.05
2019-04-06T05:42:28.311Z,68.47
2019-04-06T05:44:58.218Z,72.90
2019-04-06T05:47:28.005Z,70.15
2019-04-06T05:49:57.958Z,70.30
2019-04-06T05:52:27.787Z,71.33
2019-04-06T05:54:57.477Z,68.85
2019-04-06T05:57:27.356Z,66.40
2019-04-06T05:59:57.247Z,66.50
2019-04-06T06:02:27.445Z,69.42
2019-04-06T06:04:57.135Z,65.87
2019-04-06T06:07:26.558Z,67.78
2019-04-06T06:09:56.276Z,68.15
2019-04-06T06:12:26.208Z,66.92
2019-04-06T06:14:56.084Z,65.75
2019-04-06T06:17:26.049Z,66.80
2019-04-06T06:19:55.917Z,66.85
2019-04-06T06:22:25.592Z,66.28
2019-04-06T06:24:55.189Z,67.08
2019-04-06T06:27:25.013Z,66.33
2019-04-06T06:29:54.545Z,67.55
2019-04-06T06:32:24.221Z,66.17
2019-04-06T06:34:55.223Z,65.25
2019-04-06T06:37:24.998Z,63.52
2019-04-06T06:39:54.827Z,63.65
2019-04-06T06:42:24.472Z,62.30
2019-04-06T06:44:54.447Z,64.58
2019-04-06T06:47:24.410Z,64.58
2019-04-06T06:49:54.774Z,64.82
2019-04-06T06:52:24.732Z,61.68
2019-04-06T06:54:54.419Z,61.65
2019-04-06T06:57:24.475Z,63.78
2019-04-06T06:59:53.919Z,62.13
2019-04-06T07:02:23.972Z,64.20
2019-04-06T07:04:54.091Z,64.42
2019-04-06T07:07:23.977Z,63.92
2019-04-06T07:10:04.215Z,63.65
2019-04-06T07:12:25.185Z,63.48
2019-04-06T07:14:54.742Z,65.00
2019-04-06T07:17:24.835Z,62.67
2019-04-06T07:19:54.585Z,63.15
2019-04-06T07:22:24.330Z,63.65
2019-04-06T07:24:54.299Z,63.63
2019-04-06T07:27:23.999Z,62.15
2019-04-06T07:29:53.581Z,62.20
2019-04-06T07:32:23.188Z,63.78
2019-04-06T07:34:52.625Z,60.40
2019-04-06T07:37:25.549Z,59.58
2019-04-06T07:39:55.068Z,59.90
2019-04-06T07:42:24.732Z,58.02
2019-04-06T07:44:54.342Z,55.75
2019-04-06T07:47:24.109Z,57.73
2019-04-06T07:49:53.572Z,57.73
2019-04-06T07:52:22.984Z,55.23
2019-04-06T07:54:52.646Z,55.58
2019-04-06T07:57:22.056Z,56.33
2019-04-06T07:59:51.519Z,54.65
2019-04-06T08:02:20.973Z,53.90
2019-04-06T08:04:50.593Z,53.98
2019-04-06T08:07:20.039Z,55.83
2019-04-06T08:09:49.794Z,53.17
2019-04-06T08:12:19.431Z,53.58
2019-04-06T08:14:49.379Z,51.53
2019-04-06T08:17:19.193Z,51.88
2019-04-06T08:19:48.929Z,51.85
2019-04-06T08:22:19.072Z,50.88
2019-04-06T08:24:48.660Z,53.00
2019-04-06T08:27:18.448Z,51.37
2019-04-06T08:29:48.209Z,49.73
2019-04-06T08:32:17.908Z,50.80
2019-04-06T08:34:47.811Z,50.23
2019-04-06T08:37:17.699Z,49.08
2019-04-06T08:39:47.278Z,48.85
2019-04-06T08:42:17.058Z,47.83
2019-04-06T08:44:46.778Z,50.17
2019-04-06T08:47:16.810Z,48.33
2019-04-06T08:49:46.682Z,47.60
2019-04-06T08:52:16.450Z,49.42
2019-04-06T08:54:46.237Z,47.80
2019-04-06T08:57:15.957Z,46.13
2019-04-06T08:59:45.925Z,45.83
2019-04-06T09:02:15.561Z,45.12
2019-04-06T09:04:48.732Z,46.58
2019-04-06T09:07:18.613Z,45.90
2019-04-06T09:09:48.677Z,42.75
2019-04-06T09:12:18.297Z,44.65
2019-04-06T09:14:51.036Z,43.35
2019-04-06T09:17:20.930Z,42.88
2019-04-06T09:19:51.286Z,41.83
2019-04-06T09:22:21.313Z,43.00
2019-04-06T09:24:50.947Z,41.90
2019-04-06T09:27:19.971Z,42.67
2019-04-06T09:29:49.014Z,44.00
2019-04-06T09:32:18.484Z,41.85
2019-04-06T09:34:47.596Z,39.88
2019-04-06T09:37:16.677Z,40.85
2019-04-06T09:39:46.045Z,40.85
2019-04-06T09:42:15.109Z,40.28
2019-04-06T09:44:52.931Z,40.03
2019-04-06T09:47:28.982Z,43.52
2019-04-06T09:50:15.500Z,39.27
2019-04-06T09:53:03.404Z,41.40
2019-04-06T09:55:45.447Z,40.12
2019-04-06T09:58:33.039Z,38.92
2019-04-06T10:01:37.345Z,38.20
2019-04-06T10:04:20.667Z,37.60
2019-04-06T10:07:18.025Z,36.65
2019-04-06T10:09:57.545Z,36.30
2019-04-06T10:12:49.042Z,37.55
2019-04-06T10:15:37.448Z,37.78
2019-04-06T10:18:22.764Z,36.93
2019-04-06T10:21:17.399Z,37.42
2019-04-06T10:24:05.868Z,37.38
2019-04-06T10:27:00.174Z,35.08
2019-04-06T10:30:06.897Z,37.48
2019-04-06T10:33:04.385Z,38.75
2019-04-06T10:35:46.725Z,37.42
2019-04-06T10:38:37.842Z,37.35
2019-04-06T10:41:17.834Z,37.10
2019-04-06T10:44:03.091Z,35.00
2019-04-06T10:46:54.332Z,34.15
2019-04-06T10:49:38.962Z,34.48
2019-04-06T10:52:30.936Z,33.73
2019-04-06T10:55:28.652Z,33.78
2019-04-06T11:01:01.425Z,33.55
2019-04-06T11:03:52.525Z,34.03
2019-04-06T11:06:37.480Z,34.03
2019-04-06T11:09:25.264Z,35.83
2019-04-06T11:15:14.216Z,33.38
2019-04-06T11:18:17.329Z,33.23
2019-04-06T11:21:01.383Z,31.30
2019-04-06T11:23:58.470Z,30.88
2019-04-06T11:26:42.614Z,31.75
2019-04-06T11:29:31.073Z,29.45
2019-04-06T11:32:40.471Z,31.00
2019-04-06T11:35:32.353Z,32.48
2019-04-06T11:38:20.319Z,32.23
2019-04-06T11:43:48.386Z,31.55
2019-04-06T11:46:45.898Z,33.00
2019-04-06T11:49:33.758Z,33.35
2019-04-06T11:52:17.323Z,32.28
2019-04-06T11:55:04.383Z,32.83
2019-04-06T11:57:51.085Z,32.70
2019-04-06T12:00:28.389Z,32.73
2019-04-06T12:03:03.946Z,31.70
2019-04-06T12:05:55.586Z,31.23
2019-04-06T12:08:47.095Z,30.52
2019-04-06T12:11:33.048Z,30.52
2019-04-06T12:14:11.464Z,30.62
2019-04-06T12:16:56.570Z,32.80
2019-04-06T12:19:43.616Z,32.23
2019-04-06T12:22:19.536Z,33.60
2019-04-06T12:25:17.068Z,30.88
2019-04-06T12:28:08.723Z,31.82
2019-04-06T12:30:55.521Z,29.80
2019-04-06T12:34:02.509Z,28.85
2019-04-06T12:36:50.852Z,29.45
2019-04-06T12:39:53.046Z,28.73
2019-04-06T12:42:38.965Z,27.10
2019-04-06T12:45:26.326Z,29.65
2019-04-06T12:48:13.676Z,27.42
2019-04-06T12:51:00.562Z,27.87
2019-04-06T12:53:48.865Z,28.90
2019-04-06T12:56:35.977Z,28.07
2019-04-06T12:59:22.602Z,28.30
2019-04-06T13:02:16.423Z,28.50
2019-04-06T13:05:17.346Z,28.00
2019-04-06T13:08:04.585Z,28.57
2019-04-06T13:11:08.462Z,28.73
2019-04-06T13:13:59.816Z,29.05
2019-04-06T13:16:50.912Z,29.75
2019-04-06T13:19:37.574Z,29.10
2019-04-06T13:22:39.604Z,27.45
2019-04-06T13:25:46.394Z,28.00
2019-04-06T13:28:53.132Z,29.27
2019-04-06T13:31:41.643Z,28.87
2019-04-06T13:34:30.231Z,29.65
2019-04-06T13:37:36.815Z,29.52
2019-04-06T13:40:37.849Z,30.10
2019-04-06T13:43:32.180Z,29.92
2019-04-06T13:46:17.776Z,28.38
2019-04-06T13:49:15.261Z,28.67
2019-04-06T13:51:49.840Z,28.52
2019-04-06T13:54:38.238Z,29.48
2019-04-06T13:57:41.789Z,29.12
2019-04-06T14:00:40.614Z,28.10
2019-04-06T14:03:16.683Z,29.98
2019-04-06T14:06:08.330Z,29.57
2019-04-06T14:08:44.415Z,31.10
2019-04-06T14:11:28.192Z,29.67
2019-04-06T14:14:07.085Z,31.40
2019-04-06T14:16:48.823Z,31.73
2019-04-06T14:19:36.336Z,31.73
2019-04-06T14:22:36.693Z,31.52
2019-04-06T14:25:30.605Z,32.67
2019-04-06T14:28:19.482Z,29.75
2019-04-06T14:31:04.992Z,31.62
2019-04-06T14:33:50.878Z,30.55
2019-04-06T14:36:51.716Z,31.07
2019-04-06T14:39:31.964Z,31.42
2019-04-06T14:42:19.556Z,32.50
2019-04-06T14:44:58.916Z,32.93
2019-04-06T14:47:47.485Z,31.60
2019-04-06T14:50:36.252Z,32.05
2019-04-06T14:53:30.711Z,32.30
2019-04-06T14:56:34.458Z,32.38
2019-04-06T14:59:29.284Z,33.25
2019-04-06T15:02:08.567Z,32.93
2019-04-06T15:04:49.057Z,33.35
2019-04-06T15:07:36.410Z,32.53
2019-04-06T15:10:25.293Z,32.30
2019-04-06T15:13:13.793Z,33.10
2019-04-06T15:16:05.367Z,32.38
2019-04-06T15:19:05.483Z,33.30
2019-04-06T15:21:59.744Z,31.30
2019-04-06T15:24:51.053Z,31.68
2019-04-06T15:27:41.893Z,30.52
2019-04-06T15:30:33.812Z,31.97
2019-04-06T15:33:24.734Z,31.17
2019-04-06T15:36:03.639Z,31.68
2019-04-06T15:38:39.421Z,32.03
2019-04-06T15:41:26.037Z,32.28
2019-04-06T15:44:20.125Z,30.17
2019-04-06T15:47:24.509Z,31.90
2019-04-06T15:50:12.037Z,31.60
2019-04-06T15:52:53.367Z,31.40
2019-04-06T15:55:36.583Z,33.67
2019-04-06T15:58:10.603Z,34.10
2019-04-06T16:00:57.502Z,34.13
2019-04-06T16:03:38.452Z,38.60
2019-04-06T16:06:17.422Z,35.73
2019-04-06T16:08:58.164Z,36.45
2019-04-06T16:11:45.242Z,37.60
2019-04-06T16:14:23.744Z,36.30
2019-04-06T16:17:06.323Z,35.75
2019-04-06T16:19:42.834Z,36.08
2019-04-06T16:22:30.059Z,35.60
2019-04-06T16:25:08.695Z,36.20
2019-04-06T16:27:57.908Z,37.13
2019-04-06T16:30:40.677Z,36.38
2019-04-06T16:33:32.197Z,37.38
2019-04-06T16:36:20.794Z,37.10
2019-04-06T16:39:18.369Z,38.35
2019-04-06T16:42:06.852Z,37.55
2019-04-06T16:44:58.055Z,36.65
2019-04-06T16:47:49.387Z,37.10
2019-04-06T16:50:38.412Z,37.65
2019-04-06T16:53:27.905Z,37.35
2019-04-06T16:56:11.664Z,36.28
2019-04-06T16:59:00.259Z,36.48
2019-04-06T17:01:41.597Z,38.75
2019-04-06T17:04:42.921Z,34.35
2019-04-06T17:07:33.975Z,38.05
2019-04-06T17:10:14.642Z,35.70
2019-04-06T17:13:01.842Z,33.63
2019-04-06T17:16:05.825Z,31.05
2019-04-06T17:18:53.237Z,33.35
2019-04-06T17:21:42.084Z,33.20
2019-04-06T17:24:36.289Z,36.40
2019-04-06T17:27:28.027Z,33.30
2019-04-06T17:30:09.358Z,35.03
2019-04-06T17:33:01.634Z,32.95
2019-04-06T17:35:37.659Z,33.60
2019-04-06T17:38:41.649Z,33.23
2019-04-06T17:41:27.497Z,35.90
2019-04-06T17:44:28.082Z,34.23
2019-04-06T17:47:18.315Z,32.28
2019-04-06T17:50:19.165Z,31.30
2019-04-06T17:53:16.417Z,33.05
2019-04-06T17:56:14.182Z,33.78
2019-04-06T18:01:42.303Z,33.88
2019-04-06T18:04:46.304Z,34.80
2019-04-06T18:07:37.970Z,33.50
2019-04-06T18:10:32.601Z,32.78
2019-04-06T18:13:24.173Z,32.83
2019-04-06T18:15:53.869Z,32.67
2019-04-06T18:18:23.914Z,34.73
2019-04-06T18:20:53.914Z,34.53
2019-04-06T18:23:23.467Z,35.95
2019-04-06T18:25:53.207Z,34.40
2019-04-06T18:28:22.672Z,33.30
2019-04-06T18:31:00.313Z,37.17
2019-04-06T18:33:30.030Z,36.77
2019-04-06T18:35:59.541Z,33.88
2019-04-06T18:38:35.725Z,37.55
2019-04-06T18:41:05.753Z,34.58
2019-04-06T18:43:35.525Z,34.30
2019-04-06T18:46:05.258Z,34.45
2019-04-06T18:48:34.985Z,35.65
2019-04-06T18:51:04.742Z,36.95
2019-04-06T18:53:34.339Z,46.77
2019-04-06T18:56:04.099Z,43.10
2019-04-06T18:58:33.797Z,40.30
2019-04-06T19:01:04.422Z,38.15
2019-04-06T19:03:34.182Z,34.88
2019-04-06T19:06:03.786Z,35.73
2019-04-06T19:08:33.573Z,37.88
2019-04-06T19:11:03.548Z,38.23
2019-04-06T19:13:33.144Z,39.73
2019-04-06T19:16:03.061Z,37.88
2019-04-06T19:18:36.252Z,38.05
2019-04-06T19:21:05.771Z,39.83
2019-04-06T19:23:35.186Z,39.70
2019-04-06T19:26:04.928Z,43.28
2019-04-06T19:28:34.455Z,39.45
2019-04-06T19:31:04.591Z,38.13
2019-04-06T19:33:34.035Z,41.70
2019-04-06T19:36:03.728Z,38.30
2019-04-06T19:38:33.649Z,36.40
2019-04-06T19:41:03.699Z,36.95
2019-04-06T19:43:33.289Z,38.13
2019-04-06T19:46:03.277Z,39.03
2019-04-06T19:48:32.970Z,39.05
2019-04-06T19:51:02.589Z,39.88
2019-04-06T19:53:32.329Z,40.67
2019-04-06T19:56:02.110Z,42.45
2019-04-06T19:58:32.341Z,57.38
2019-04-06T20:01:02.284Z,48.55
2019-04-06T20:03:36.511Z,41.15
2019-04-06T20:06:03.945Z,53.00
2019-04-06T20:08:33.689Z,52.05
2019-04-06T20:11:03.635Z,72.72
2019-04-06T20:13:33.623Z,49.85
2019-04-06T20:16:03.203Z,47.78
2019-04-06T20:18:32.653Z,45.17
2019-04-06T20:21:03.415Z,45.15
2019-04-06T20:23:33.471Z,43.60
2019-04-06T20:26:03.425Z,45.28
2019-04-06T20:28:33.666Z,125.67
2019-04-06T20:31:03.685Z,193.50
2019-04-06T20:33:33.899Z,63.42
2019-04-06T20:36:04.799Z,54.85
2019-04-06T20:38:34.491Z,47.38
2019-04-06T20:41:04.303Z,39.25
2019-04-06T20:43:34.220Z,42.33
2019-04-06T20:46:04.295Z,67.50
2019-04-06T20:48:34.071Z,59.30
2019-04-06T20:51:04.171Z,57.95
2019-04-06T20:53:34.187Z,66.70
2019-04-06T20:56:04.183Z,78.33
2019-04-06T20:58:33.728Z,75.47
2019-04-06T21:01:03.182Z,68.25
2019-04-06T21:03:32.731Z,66.82
2019-04-06T21:06:02.927Z,61.90
2019-04-06T21:08:33.247Z,64.30
2019-04-06T21:11:03.614Z,77.40
2019-04-06T21:13:33.660Z,78.17
2019-04-06T21:16:03.096Z,81.17
2019-04-06T21:18:33.339Z,81.15
2019-04-06T21:21:03.689Z,82.45
2019-04-06T21:23:33.855Z,87.47
2019-04-06T21:26:03.673Z,86.10
2019-04-06T21:28:33.859Z,94.28
2019-04-06T21:31:04.361Z,95.07
2019-04-06T21:33:34.090Z,97.30
2019-04-06T21:36:03.836Z,84.22
2019-04-06T21:38:33.382Z,81.75
2019-04-06T21:41:03.066Z,82.60
2019-04-06T21:43:32.986Z,78.02
2019-04-06T21:46:02.510Z,83.33
2019-04-06T21:48:32.499Z,81.67
2019-04-06T21:51:02.892Z,80.05
2019-04-06T21:53:32.673Z,81.60
2019-04-06T21:56:07.074Z,83.17
2019-04-06T21:58:33.857Z,83.42
2019-04-06T22:01:03.632Z,79.85
2019-04-06T22:03:33.776Z,84.03
2019-04-06T22:06:03.664Z,82.82
2019-04-06T22:08:33.592Z,77.22
2019-04-06T22:11:03.838Z,76.20
2019-04-06T22:13:34.213Z,76.33
2019-04-06T22:16:03.961Z,68.35
2019-04-06T22:18:34.381Z,69.77
2019-04-06T22:21:04.699Z,77.53
2019-04-06T22:23:42.157Z,69.17
2019-04-06T22:26:06.046Z,68.57
2019-04-06T22:28:35.838Z,62.62
2019-04-06T22:31:05.634Z,63.38
2019-04-06T22:33:35.475Z,61.98
2019-04-06T22:36:05.853Z,60.50
2019-04-06T22:38:36.462Z,59.15
2019-04-06T22:41:06.652Z,60.15
2019-04-06T22:43:36.468Z,56.88
2019-04-06T22:46:06.151Z,57.55
2019-04-06T22:48:39.186Z,55.30
2019-04-06T22:51:08.942Z,56.75
2019-04-06T22:53:38.898Z,56.33
2019-04-06T22:56:08.909Z,53.98
2019-04-06T22:58:38.881Z,51.60
2019-04-06T23:01:10.994Z,49.93
2019-04-06T23:03:58.681Z,50.20
2019-04-06T23:06:33.843Z,49.60
2019-04-06T23:09:04.641Z,50.05
2019-04-06T23:11:34.339Z,48.25
2019-04-06T23:14:04.257Z,48.10
2019-04-06T23:16:34.787Z,50.08
2019-04-06T23:19:05.132Z,48.87
2019-04-06T23:21:34.882Z,49.98
2019-04-06T23:24:04.883Z,48.73
2019-04-06T23:26:34.741Z,50.15
2019-04-06T23:29:04.369Z,47.40
2019-04-06T23:31:34.167Z,43.15
2019-04-06T23:34:04.225Z,43.83
2019-04-06T23:36:34.406Z,44.85
2019-04-06T23:39:06.865Z,45.83
2019-04-06T23:41:36.878Z,47.48
2019-04-06T23:44:06.750Z,44.18
2019-04-06T23:46:36.781Z,43.23
2019-04-06T23:49:07.725Z,44.75
2019-04-06T23:51:37.447Z,45.23
2019-04-06T23:54:07.552Z,45.60
2019-04-06T23:56:37.814Z,47.83
2019-04-06T23:59:07.715Z,49.33
